sensor_id;sensor_type;location;lat;lon;timestamp;temperature;humidity
34279;DHT22;20538;51.528;9.942;2022-10-16T00:01:23;14.80;99.90
34279;DHT22;20538;51.528;9.942;2022-10-16T00:03:49;14.80;99.90
34279;DHT22;20538;51.528;9.942;2022-10-16T00:06:17;14.80;99.90
34279;DHT22;20538;51.528;9.942;2022-10-16T00:08:43;14.80;99.90
34279;DHT22;20538;51.528;9.942;2022-10-16T00:11:12;14.80;99.90
34279;DHT22;20538;51.528;9.942;2022-10-16T00:13:40;14.90;99.90
34279;DHT22;20538;51.528;9.942;2022-10-16T00:16:06;14.90;99.90
34279;DHT22;20538;51.528;9.942;2022-10-16T00:18:32;14.90;99.90
34279;DHT22;20538;51.528;9.942;2022-10-16T00:21:06;14.90;99.90
34279;DHT22;20538;51.528;9.942;2022-10-16T00:23:32;14.90;99.90
34279;DHT22;20538;51.528;9.942;2022-10-16T00:26:00;14.90;99.90
34279;DHT22;20538;51.528;9.942;2022-10-16T00:28:26;14.90;99.90
34279;DHT22;20538;51.528;9.942;2022-10-16T00:30:53;14.90;99.90
34279;DHT22;20538;51.528;9.942;2022-10-16T00:33:19;14.90;99.90
34279;DHT22;20538;51.528;9.942;2022-10-16T00:35:44;14.90;99.90
34279;DHT22;20538;51.528;9.942;2022-10-16T00:38:10;14.90;99.90
34279;DHT22;20538;51.528;9.942;2022-10-16T00:40:36;14.90;99.90
34279;DHT22;20538;51.528;9.942;2022-10-16T00:43:02;14.90;99.90
34279;DHT22;20538;51.528;9.942;2022-10-16T00:45:30;14.90;99.90
34279;DHT22;20538;51.528;9.942;2022-10-16T00:47:56;14.90;99.90
34279;DHT22;20538;51.528;9.942;2022-10-16T00:50:30;14.90;99.90
34279;DHT22;20538;51.528;9.942;2022-10-16T00:52:57;14.90;99.90
34279;DHT22;20538;51.528;9.942;2022-10-16T00:55:24;14.90;99.90
34279;DHT22;20538;51.528;9.942;2022-10-16T00:57:51;14.80;99.90
34279;DHT22;20538;51.528;9.942;2022-10-16T01:00:20;14.90;99.90
34279;DHT22;20538;51.528;9.942;2022-10-16T01:02:58;14.90;99.90
34279;DHT22;20538;51.528;9.942;2022-10-16T01:05:39;14.80;99.90
34279;DHT22;20538;51.528;9.942;2022-10-16T01:08:16;14.80;99.90
34279;DHT22;20538;51.528;9.942;2022-10-16T01:13:12;14.90;99.90
34279;DHT22;20538;51.528;9.942;2022-10-16T01:21:52;14.90;99.90
34279;DHT22;20538;51.528;9.942;2022-10-16T01:24:37;14.90;99.90
34279;DHT22;20538;51.528;9.942;2022-10-16T01:27:16;14.90;99.90
34279;DHT22;20538;51.528;9.942;2022-10-16T01:34:49;14.90;99.90
34279;DHT22;20538;51.528;9.942;2022-10-16T01:37:22;14.90;99.90
34279;DHT22;20538;51.528;9.942;2022-10-16T01:39:51;14.80;99.90
34279;DHT22;20538;51.528;9.942;2022-10-16T01:42:22;14.90;99.90
34279;DHT22;20538;51.528;9.942;2022-10-16T01:44:50;14.90;99.90
34279;DHT22;20538;51.528;9.942;2022-10-16T01:47:17;14.90;99.90
34279;DHT22;20538;51.528;9.942;2022-10-16T01:49:46;14.80;99.90
34279;DHT22;20538;51.528;9.942;2022-10-16T01:52:16;14.80;99.90
34279;DHT22;20538;51.528;9.942;2022-10-16T01:54:46;14.80;99.90
34279;DHT22;20538;51.528;9.942;2022-10-16T01:57:14;14.70;99.90
34279;DHT22;20538;51.528;9.942;2022-10-16T01:59:47;14.70;99.90
34279;DHT22;20538;51.528;9.942;2022-10-16T02:02:17;14.70;99.90
34279;DHT22;20538;51.528;9.942;2022-10-16T02:04:51;14.70;99.90
34279;DHT22;20538;51.528;9.942;2022-10-16T02:07:18;14.60;99.90
34279;DHT22;20538;51.528;9.942;2022-10-16T02:09:44;14.60;99.90
34279;DHT22;20538;51.528;9.942;2022-10-16T02:14:45;14.50;99.90
34279;DHT22;20538;51.528;9.942;2022-10-16T02:17:14;14.50;99.90
34279;DHT22;20538;51.528;9.942;2022-10-16T02:19:41;14.50;99.90
34279;DHT22;20538;51.528;9.942;2022-10-16T02:22:09;14.50;99.90
34279;DHT22;20538;51.528;9.942;2022-10-16T02:24:57;14.50;99.90
34279;DHT22;20538;51.528;9.942;2022-10-16T02:27:34;14.50;99.90
34279;DHT22;20538;51.528;9.942;2022-10-16T02:30:27;14.50;99.90
34279;DHT22;20538;51.528;9.942;2022-10-16T02:32:56;14.40;99.90
34279;DHT22;20538;51.528;9.942;2022-10-16T02:35:23;14.40;99.90
34279;DHT22;20538;51.528;9.942;2022-10-16T02:37:50;14.40;99.90
34279;DHT22;20538;51.528;9.942;2022-10-16T02:40:20;14.40;99.90
34279;DHT22;20538;51.528;9.942;2022-10-16T02:42:50;14.40;99.90
34279;DHT22;20538;51.528;9.942;2022-10-16T02:45:18;14.40;99.90
34279;DHT22;20538;51.528;9.942;2022-10-16T02:47:44;14.40;99.90
34279;DHT22;20538;51.528;9.942;2022-10-16T02:50:09;14.40;99.90
34279;DHT22;20538;51.528;9.942;2022-10-16T02:52:35;14.40;99.90
34279;DHT22;20538;51.528;9.942;2022-10-16T02:55:01;14.40;99.90
34279;DHT22;20538;51.528;9.942;2022-10-16T02:57:27;14.40;99.90
34279;DHT22;20538;51.528;9.942;2022-10-16T02:59:53;14.40;99.90
34279;DHT22;20538;51.528;9.942;2022-10-16T03:02:19;14.50;99.90
34279;DHT22;20538;51.528;9.942;2022-10-16T03:04:45;14.50;99.90
34279;DHT22;20538;51.528;9.942;2022-10-16T03:07:13;14.40;99.90
34279;DHT22;20538;51.528;9.942;2022-10-16T03:09:38;14.40;99.90
34279;DHT22;20538;51.528;9.942;2022-10-16T03:12:07;14.40;99.90
34279;DHT22;20538;51.528;9.942;2022-10-16T03:14:33;14.40;99.90
34279;DHT22;20538;51.528;9.942;2022-10-16T03:16:59;14.40;99.90
34279;DHT22;20538;51.528;9.942;2022-10-16T03:27:31;14.20;99.90
34279;DHT22;20538;51.528;9.942;2022-10-16T03:33:04;14.10;99.90
34279;DHT22;20538;51.528;9.942;2022-10-16T03:49:25;13.80;99.90
34279;DHT22;20538;51.528;9.942;2022-10-16T03:55:41;13.80;99.90
34279;DHT22;20538;51.528;9.942;2022-10-16T03:58:44;13.70;99.90
34279;DHT22;20538;51.528;9.942;2022-10-16T04:01:18;13.60;99.90
34279;DHT22;20538;51.528;9.942;2022-10-16T04:03:46;13.40;99.90
34279;DHT22;20538;51.528;9.942;2022-10-16T04:06:14;13.40;99.90
34279;DHT22;20538;51.528;9.942;2022-10-16T04:08:43;13.40;99.90
34279;DHT22;20538;51.528;9.942;2022-10-16T04:11:19;13.30;99.90
34279;DHT22;20538;51.528;9.942;2022-10-16T04:13:59;13.40;99.90
34279;DHT22;20538;51.528;9.942;2022-10-16T04:16:25;13.40;99.90
34279;DHT22;20538;51.528;9.942;2022-10-16T04:18:56;13.40;99.90
34279;DHT22;20538;51.528;9.942;2022-10-16T04:21:27;13.30;99.90
34279;DHT22;20538;51.528;9.942;2022-10-16T04:23:58;13.40;99.90
34279;DHT22;20538;51.528;9.942;2022-10-16T04:26:23;13.40;99.90
34279;DHT22;20538;51.528;9.942;2022-10-16T04:28:49;13.40;99.90
34279;DHT22;20538;51.528;9.942;2022-10-16T04:31:17;13.40;99.90
34279;DHT22;20538;51.528;9.942;2022-10-16T04:33:51;13.40;99.90
34279;DHT22;20538;51.528;9.942;2022-10-16T04:36:25;13.30;99.90
34279;DHT22;20538;51.528;9.942;2022-10-16T04:38:53;13.30;99.90
34279;DHT22;20538;51.528;9.942;2022-10-16T04:41:21;13.20;99.90
34279;DHT22;20538;51.528;9.942;2022-10-16T04:43:51;13.30;99.90
34279;DHT22;20538;51.528;9.942;2022-10-16T04:46:25;13.30;99.90
34279;DHT22;20538;51.528;9.942;2022-10-16T04:48:56;13.30;99.90
34279;DHT22;20538;51.528;9.942;2022-10-16T04:51:22;13.30;99.90
34279;DHT22;20538;51.528;9.942;2022-10-16T04:53:48;13.30;99.90
34279;DHT22;20538;51.528;9.942;2022-10-16T04:56:14;13.40;99.90
34279;DHT22;20538;51.528;9.942;2022-10-16T04:58:43;13.40;99.90
34279;DHT22;20538;51.528;9.942;2022-10-16T05:01:28;13.50;99.90
34279;DHT22;20538;51.528;9.942;2022-10-16T05:04:03;13.50;99.90
34279;DHT22;20538;51.528;9.942;2022-10-16T05:06:35;13.60;99.90
34279;DHT22;20538;51.528;9.942;2022-10-16T05:09:04;13.70;99.90
34279;DHT22;20538;51.528;9.942;2022-10-16T05:11:30;13.70;99.90
34279;DHT22;20538;51.528;9.942;2022-10-16T05:13:56;13.80;99.90
34279;DHT22;20538;51.528;9.942;2022-10-16T05:16:27;13.80;99.90
34279;DHT22;20538;51.528;9.942;2022-10-16T05:18:53;13.80;99.90
34279;DHT22;20538;51.528;9.942;2022-10-16T05:21:24;13.80;99.90
34279;DHT22;20538;51.528;9.942;2022-10-16T05:24:12;13.90;99.90
34279;DHT22;20538;51.528;9.942;2022-10-16T05:26:50;13.90;99.90
34279;DHT22;20538;51.528;9.942;2022-10-16T05:29:20;13.90;99.90
34279;DHT22;20538;51.528;9.942;2022-10-16T05:31:57;14.00;99.90
34279;DHT22;20538;51.528;9.942;2022-10-16T05:34:34;13.90;99.90
34279;DHT22;20538;51.528;9.942;2022-10-16T05:37:12;14.00;99.90
34279;DHT22;20538;51.528;9.942;2022-10-16T05:39:57;13.90;99.90
34279;DHT22;20538;51.528;9.942;2022-10-16T05:42:34;13.80;99.90
34279;DHT22;20538;51.528;9.942;2022-10-16T05:45:03;13.80;99.90
34279;DHT22;20538;51.528;9.942;2022-10-16T05:47:38;13.80;99.90
34279;DHT22;20538;51.528;9.942;2022-10-16T05:50:06;13.90;99.90
34279;DHT22;20538;51.528;9.942;2022-10-16T05:52:49;13.90;99.90
34279;DHT22;20538;51.528;9.942;2022-10-16T05:55:23;13.90;99.90
34279;DHT22;20538;51.528;9.942;2022-10-16T05:57:53;13.90;99.90
34279;DHT22;20538;51.528;9.942;2022-10-16T06:00:22;13.90;99.90
34279;DHT22;20538;51.528;9.942;2022-10-16T06:02:52;13.90;99.90
34279;DHT22;20538;51.528;9.942;2022-10-16T06:05:30;13.90;99.90
34279;DHT22;20538;51.528;9.942;2022-10-16T06:08:07;13.90;99.90
34279;DHT22;20538;51.528;9.942;2022-10-16T06:10:38;13.90;99.90
34279;DHT22;20538;51.528;9.942;2022-10-16T06:13:06;13.90;99.90
34279;DHT22;20538;51.528;9.942;2022-10-16T06:15:52;13.90;99.90
34279;DHT22;20538;51.528;9.942;2022-10-16T06:18:21;13.90;99.90
34279;DHT22;20538;51.528;9.942;2022-10-16T06:20:54;13.90;99.90
34279;DHT22;20538;51.528;9.942;2022-10-16T06:23:22;13.90;99.90
34279;DHT22;20538;51.528;9.942;2022-10-16T06:25:51;14.10;99.90
34279;DHT22;20538;51.528;9.942;2022-10-16T06:28:20;14.10;99.90
34279;DHT22;20538;51.528;9.942;2022-10-16T06:30:45;14.20;99.90
34279;DHT22;20538;51.528;9.942;2022-10-16T06:33:14;14.30;99.90
34279;DHT22;20538;51.528;9.942;2022-10-16T06:35:53;14.30;99.90
34279;DHT22;20538;51.528;9.942;2022-10-16T06:38:21;14.40;99.90
34279;DHT22;20538;51.528;9.942;2022-10-16T06:40:58;14.40;99.90
34279;DHT22;20538;51.528;9.942;2022-10-16T06:43:28;14.50;99.90
34279;DHT22;20538;51.528;9.942;2022-10-16T06:46:06;14.50;99.90
34279;DHT22;20538;51.528;9.942;2022-10-16T06:48:34;14.50;99.90
34279;DHT22;20538;51.528;9.942;2022-10-16T06:51:08;14.50;99.90
34279;DHT22;20538;51.528;9.942;2022-10-16T06:53:44;14.50;99.90
34279;DHT22;20538;51.528;9.942;2022-10-16T06:56:28;14.40;99.90
34279;DHT22;20538;51.528;9.942;2022-10-16T06:59:01;14.40;99.90
34279;DHT22;20538;51.528;9.942;2022-10-16T07:01:35;14.40;99.90
34279;DHT22;20538;51.528;9.942;2022-10-16T07:04:04;14.40;99.90
34279;DHT22;20538;51.528;9.942;2022-10-16T07:06:34;14.40;99.90
34279;DHT22;20538;51.528;9.942;2022-10-16T07:09:21;14.40;99.90
34279;DHT22;20538;51.528;9.942;2022-10-16T07:11:57;14.30;99.90
34279;DHT22;20538;51.528;9.942;2022-10-16T07:14:30;14.30;99.90
34279;DHT22;20538;51.528;9.942;2022-10-16T07:17:04;14.40;99.90
34279;DHT22;20538;51.528;9.942;2022-10-16T07:19:29;14.50;99.90
34279;DHT22;20538;51.528;9.942;2022-10-16T07:21:57;14.50;99.90
34279;DHT22;20538;51.528;9.942;2022-10-16T07:24:28;14.60;99.90
34279;DHT22;20538;51.528;9.942;2022-10-16T07:27:05;14.70;99.90
34279;DHT22;20538;51.528;9.942;2022-10-16T07:30:18;14.80;99.90
34279;DHT22;20538;51.528;9.942;2022-10-16T07:33:12;14.90;99.90
34279;DHT22;20538;51.528;9.942;2022-10-16T07:35:57;14.90;99.90
34279;DHT22;20538;51.528;9.942;2022-10-16T07:38:37;14.90;99.90
34279;DHT22;20538;51.528;9.942;2022-10-16T07:42:06;14.90;99.90
34279;DHT22;20538;51.528;9.942;2022-10-16T07:44:38;14.90;99.90
34279;DHT22;20538;51.528;9.942;2022-10-16T07:47:13;14.90;99.90
34279;DHT22;20538;51.528;9.942;2022-10-16T07:49:51;14.90;99.90
34279;DHT22;20538;51.528;9.942;2022-10-16T07:52:16;14.80;99.90
34279;DHT22;20538;51.528;9.942;2022-10-16T07:54:44;14.80;99.90
34279;DHT22;20538;51.528;9.942;2022-10-16T07:57:10;14.90;99.90
34279;DHT22;20538;51.528;9.942;2022-10-16T07:59:48;14.90;99.90
34279;DHT22;20538;51.528;9.942;2022-10-16T08:02:17;15.10;99.90
34279;DHT22;20538;51.528;9.942;2022-10-16T08:04:46;15.20;99.90
34279;DHT22;20538;51.528;9.942;2022-10-16T08:07:15;15.30;99.90
34279;DHT22;20538;51.528;9.942;2022-10-16T08:09:43;15.40;99.90
34279;DHT22;20538;51.528;9.942;2022-10-16T08:12:09;15.60;99.90
34279;DHT22;20538;51.528;9.942;2022-10-16T08:14:38;15.90;99.90
34279;DHT22;20538;51.528;9.942;2022-10-16T08:17:09;16.00;99.90
34279;DHT22;20538;51.528;9.942;2022-10-16T08:19:53;16.10;99.90
34279;DHT22;20538;51.528;9.942;2022-10-16T08:22:26;16.30;99.90
34279;DHT22;20538;51.528;9.942;2022-10-16T08:24:59;16.40;99.90
34279;DHT22;20538;51.528;9.942;2022-10-16T08:27:46;16.50;99.90
34279;DHT22;20538;51.528;9.942;2022-10-16T08:30:15;16.60;99.90
34279;DHT22;20538;51.528;9.942;2022-10-16T08:32:41;16.50;99.90
34279;DHT22;20538;51.528;9.942;2022-10-16T08:35:09;16.50;99.90
34279;DHT22;20538;51.528;9.942;2022-10-16T08:37:37;16.40;99.90
34279;DHT22;20538;51.528;9.942;2022-10-16T08:40:13;16.30;99.90
34279;DHT22;20538;51.528;9.942;2022-10-16T08:48:46;16.40;99.90
34279;DHT22;20538;51.528;9.942;2022-10-16T08:51:22;16.30;99.90
34279;DHT22;20538;51.528;9.942;2022-10-16T08:53:53;16.40;99.90
34279;DHT22;20538;51.528;9.942;2022-10-16T08:56:23;16.30;99.90
34279;DHT22;20538;51.528;9.942;2022-10-16T08:58:58;16.30;99.90
34279;DHT22;20538;51.528;9.942;2022-10-16T09:01:34;16.40;99.90
34279;DHT22;20538;51.528;9.942;2022-10-16T09:06:56;16.40;99.90
34279;DHT22;20538;51.528;9.942;2022-10-16T09:09:46;16.50;99.90
34279;DHT22;20538;51.528;9.942;2022-10-16T09:12:37;16.70;99.90
34279;DHT22;20538;51.528;9.942;2022-10-16T09:18:26;16.90;99.90
34279;DHT22;20538;51.528;9.942;2022-10-16T09:21:14;16.90;99.90
34279;DHT22;20538;51.528;9.942;2022-10-16T09:23:42;16.90;99.90
34279;DHT22;20538;51.528;9.942;2022-10-16T09:26:13;17.10;99.90
34279;DHT22;20538;51.528;9.942;2022-10-16T09:28:40;17.10;99.90
34279;DHT22;20538;51.528;9.942;2022-10-16T09:31:20;17.20;99.90
34279;DHT22;20538;51.528;9.942;2022-10-16T09:34:05;17.20;99.90
34279;DHT22;20538;51.528;9.942;2022-10-16T09:36:40;17.20;99.90
34279;DHT22;20538;51.528;9.942;2022-10-16T09:39:10;17.30;99.90
34279;DHT22;20538;51.528;9.942;2022-10-16T09:41:41;17.00;99.90
34279;DHT22;20538;51.528;9.942;2022-10-16T09:44:21;16.80;99.90
34279;DHT22;20538;51.528;9.942;2022-10-16T09:46:48;16.70;99.90
34279;DHT22;20538;51.528;9.942;2022-10-16T09:49:24;16.60;99.90
34279;DHT22;20538;51.528;9.942;2022-10-16T09:52:02;16.60;99.90
34279;DHT22;20538;51.528;9.942;2022-10-16T09:54:28;16.40;99.90
34279;DHT22;20538;51.528;9.942;2022-10-16T09:57:05;16.40;99.90
34279;DHT22;20538;51.528;9.942;2022-10-16T09:59:31;16.50;99.90
34279;DHT22;20538;51.528;9.942;2022-10-16T10:02:02;16.60;99.90
34279;DHT22;20538;51.528;9.942;2022-10-16T10:04:41;16.60;99.90
34279;DHT22;20538;51.528;9.942;2022-10-16T10:07:18;16.60;99.90
34279;DHT22;20538;51.528;9.942;2022-10-16T10:09:45;16.50;99.90
34279;DHT22;20538;51.528;9.942;2022-10-16T10:12:26;16.40;99.90
34279;DHT22;20538;51.528;9.942;2022-10-16T10:14:55;16.30;99.90
34279;DHT22;20538;51.528;9.942;2022-10-16T10:17:27;16.30;99.90
34279;DHT22;20538;51.528;9.942;2022-10-16T10:19:58;16.20;99.90
34279;DHT22;20538;51.528;9.942;2022-10-16T10:30:49;16.10;99.90
34279;DHT22;20538;51.528;9.942;2022-10-16T10:41:27;16.40;99.90
34279;DHT22;20538;51.528;9.942;2022-10-16T10:46:57;16.40;99.90
34279;DHT22;20538;51.528;9.942;2022-10-16T10:57:36;16.90;99.90
34279;DHT22;20538;51.528;9.942;2022-10-16T11:00:18;17.10;99.90
34279;DHT22;20538;51.528;9.942;2022-10-16T11:05:31;17.30;99.90
34279;DHT22;20538;51.528;9.942;2022-10-16T11:08:13;17.30;99.90
34279;DHT22;20538;51.528;9.942;2022-10-16T11:11:01;17.20;99.90
34279;DHT22;20538;51.528;9.942;2022-10-16T11:13:42;17.30;99.90
34279;DHT22;20538;51.528;9.942;2022-10-16T11:16:31;17.30;99.90
34279;DHT22;20538;51.528;9.942;2022-10-16T11:18:59;17.60;99.90
34279;DHT22;20538;51.528;9.942;2022-10-16T11:21:30;17.80;99.90
34279;DHT22;20538;51.528;9.942;2022-10-16T11:24:04;17.90;99.90
34279;DHT22;20538;51.528;9.942;2022-10-16T11:26:35;18.00;99.90
34279;DHT22;20538;51.528;9.942;2022-10-16T11:29:05;18.00;99.90
34279;DHT22;20538;51.528;9.942;2022-10-16T11:32:06;18.00;99.90
34279;DHT22;20538;51.528;9.942;2022-10-16T11:34:47;18.20;99.90
34279;DHT22;20538;51.528;9.942;2022-10-16T11:37:19;18.40;99.90
34279;DHT22;20538;51.528;9.942;2022-10-16T11:39:46;18.30;99.90
34279;DHT22;20538;51.528;9.942;2022-10-16T11:42:26;18.40;99.90
34279;DHT22;20538;51.528;9.942;2022-10-16T11:45:28;18.40;99.90
34279;DHT22;20538;51.528;9.942;2022-10-16T11:48:17;18.40;99.90
34279;DHT22;20538;51.528;9.942;2022-10-16T11:50:57;18.40;99.90
34279;DHT22;20538;51.528;9.942;2022-10-16T11:53:59;18.30;99.90
34279;DHT22;20538;51.528;9.942;2022-10-16T11:56:28;18.60;99.90
34279;DHT22;20538;51.528;9.942;2022-10-16T11:59:00;18.80;99.90
34279;DHT22;20538;51.528;9.942;2022-10-16T12:06:57;18.90;99.90
34279;DHT22;20538;51.528;9.942;2022-10-16T12:09:32;18.80;99.90
34279;DHT22;20538;51.528;9.942;2022-10-16T12:11:59;19.00;99.90
34279;DHT22;20538;51.528;9.942;2022-10-16T12:14:35;19.00;99.90
34279;DHT22;20538;51.528;9.942;2022-10-16T12:22:54;19.30;99.90
34279;DHT22;20538;51.528;9.942;2022-10-16T12:25:34;19.50;99.90
34279;DHT22;20538;51.528;9.942;2022-10-16T12:28:04;19.60;99.90
34279;DHT22;20538;51.528;9.942;2022-10-16T12:30:34;19.40;99.90
34279;DHT22;20538;51.528;9.942;2022-10-16T12:35:48;19.70;99.90
34279;DHT22;20538;51.528;9.942;2022-10-16T12:38:44;19.80;99.90
34279;DHT22;20538;51.528;9.942;2022-10-16T12:41:10;19.60;99.90
34279;DHT22;20538;51.528;9.942;2022-10-16T12:43:47;19.70;99.90
34279;DHT22;20538;51.528;9.942;2022-10-16T12:48:40;19.70;99.90
34279;DHT22;20538;51.528;9.942;2022-10-16T12:51:35;19.90;99.90
34279;DHT22;20538;51.528;9.942;2022-10-16T12:54:14;19.80;99.90
34279;DHT22;20538;51.528;9.942;2022-10-16T13:11:11;19.90;99.90
34279;DHT22;20538;51.528;9.942;2022-10-16T13:14:02;19.80;99.90
34279;DHT22;20538;51.528;9.942;2022-10-16T13:22:27;19.10;99.90
34279;DHT22;20538;51.528;9.942;2022-10-16T13:27:49;18.90;99.90
34279;DHT22;20538;51.528;9.942;2022-10-16T13:30:23;18.80;99.90
34279;DHT22;20538;51.528;9.942;2022-10-16T13:33:01;18.80;99.90
34279;DHT22;20538;51.528;9.942;2022-10-16T13:35:30;18.80;99.90
34279;DHT22;20538;51.528;9.942;2022-10-16T13:38:27;18.90;99.90
34279;DHT22;20538;51.528;9.942;2022-10-16T13:40:59;19.00;99.90
34279;DHT22;20538;51.528;9.942;2022-10-16T13:43:46;19.10;99.90
34279;DHT22;20538;51.528;9.942;2022-10-16T13:46:19;19.20;99.90
34279;DHT22;20538;51.528;9.942;2022-10-16T13:48:56;19.30;99.90
34279;DHT22;20538;51.528;9.942;2022-10-16T13:51:22;19.30;99.90
34279;DHT22;20538;51.528;9.942;2022-10-16T13:53:52;19.30;99.90
34279;DHT22;20538;51.528;9.942;2022-10-16T13:56:20;19.20;99.90
34279;DHT22;20538;51.528;9.942;2022-10-16T13:59:01;19.30;99.90
34279;DHT22;20538;51.528;9.942;2022-10-16T14:01:50;19.30;99.90
34279;DHT22;20538;51.528;9.942;2022-10-16T14:04:15;19.30;99.90
34279;DHT22;20538;51.528;9.942;2022-10-16T14:06:43;19.30;99.90
34279;DHT22;20538;51.528;9.942;2022-10-16T14:09:20;19.30;99.90
34279;DHT22;20538;51.528;9.942;2022-10-16T14:11:56;19.30;99.90
34279;DHT22;20538;51.528;9.942;2022-10-16T14:14:23;19.30;99.90
34279;DHT22;20538;51.528;9.942;2022-10-16T14:16:49;19.40;99.90
34279;DHT22;20538;51.528;9.942;2022-10-16T14:19:20;19.30;99.90
34279;DHT22;20538;51.528;9.942;2022-10-16T14:21:48;19.30;99.90
34279;DHT22;20538;51.528;9.942;2022-10-16T14:26:48;19.20;99.90
34279;DHT22;20538;51.528;9.942;2022-10-16T14:29:18;19.20;99.90
34279;DHT22;20538;51.528;9.942;2022-10-16T14:32:00;19.20;99.90
34279;DHT22;20538;51.528;9.942;2022-10-16T14:34:37;19.10;99.90
34279;DHT22;20538;51.528;9.942;2022-10-16T14:37:28;19.00;99.90
34279;DHT22;20538;51.528;9.942;2022-10-16T14:39:55;18.90;99.90
34279;DHT22;20538;51.528;9.942;2022-10-16T14:42:23;19.00;99.90
34279;DHT22;20538;51.528;9.942;2022-10-16T14:44:53;19.00;99.90
34279;DHT22;20538;51.528;9.942;2022-10-16T14:47:22;19.00;99.90
34279;DHT22;20538;51.528;9.942;2022-10-16T14:49:52;19.00;99.90
34279;DHT22;20538;51.528;9.942;2022-10-16T14:52:19;19.00;99.90
34279;DHT22;20538;51.528;9.942;2022-10-16T14:54:48;19.10;99.90
34279;DHT22;20538;51.528;9.942;2022-10-16T14:57:20;19.00;99.90
34279;DHT22;20538;51.528;9.942;2022-10-16T14:59:47;18.80;99.90
34279;DHT22;20538;51.528;9.942;2022-10-16T15:04:42;18.70;99.90
34279;DHT22;20538;51.528;9.942;2022-10-16T15:07:08;18.70;99.90
34279;DHT22;20538;51.528;9.942;2022-10-16T15:09:33;18.80;99.90
34279;DHT22;20538;51.528;9.942;2022-10-16T15:11:59;18.80;99.90
34279;DHT22;20538;51.528;9.942;2022-10-16T15:14:25;18.80;99.90
34279;DHT22;20538;51.528;9.942;2022-10-16T15:16:50;18.70;99.90
34279;DHT22;20538;51.528;9.942;2022-10-16T15:19:16;18.60;99.90
34279;DHT22;20538;51.528;9.942;2022-10-16T15:21:42;18.50;99.90
34279;DHT22;20538;51.528;9.942;2022-10-16T15:24:11;18.50;99.90
34279;DHT22;20538;51.528;9.942;2022-10-16T15:26:38;18.50;99.90
34279;DHT22;20538;51.528;9.942;2022-10-16T15:29:04;18.40;99.90
34279;DHT22;20538;51.528;9.942;2022-10-16T15:31:30;18.50;99.90
34279;DHT22;20538;51.528;9.942;2022-10-16T15:33:56;18.50;99.90
34279;DHT22;20538;51.528;9.942;2022-10-16T15:36:37;18.40;99.90
34279;DHT22;20538;51.528;9.942;2022-10-16T15:39:04;18.40;99.90
34279;DHT22;20538;51.528;9.942;2022-10-16T15:41:31;18.40;99.90
34279;DHT22;20538;51.528;9.942;2022-10-16T15:43:56;18.40;99.90
34279;DHT22;20538;51.528;9.942;2022-10-16T15:46:23;18.40;99.90
34279;DHT22;20538;51.528;9.942;2022-10-16T15:48:51;18.40;99.90
34279;DHT22;20538;51.528;9.942;2022-10-16T15:51:20;18.30;99.90
34279;DHT22;20538;51.528;9.942;2022-10-16T15:53:46;18.30;99.90
34279;DHT22;20538;51.528;9.942;2022-10-16T15:56:13;18.20;99.90
34279;DHT22;20538;51.528;9.942;2022-10-16T15:58:38;18.20;99.90
34279;DHT22;20538;51.528;9.942;2022-10-16T16:01:05;18.10;99.90
34279;DHT22;20538;51.528;9.942;2022-10-16T16:03:31;18.10;99.90
34279;DHT22;20538;51.528;9.942;2022-10-16T16:05:58;18.10;99.90
34279;DHT22;20538;51.528;9.942;2022-10-16T16:08:24;18.00;99.90
34279;DHT22;20538;51.528;9.942;2022-10-16T16:11:07;18.00;99.90
34279;DHT22;20538;51.528;9.942;2022-10-16T16:13:33;17.90;99.90
34279;DHT22;20538;51.528;9.942;2022-10-16T16:15:59;17.90;99.90
34279;DHT22;20538;51.528;9.942;2022-10-16T16:18:25;17.90;99.90
34279;DHT22;20538;51.528;9.942;2022-10-16T16:20:52;17.80;99.90
34279;DHT22;20538;51.528;9.942;2022-10-16T16:23:17;17.80;99.90
34279;DHT22;20538;51.528;9.942;2022-10-16T16:25:44;17.70;99.90
34279;DHT22;20538;51.528;9.942;2022-10-16T16:28:10;17.70;99.90
34279;DHT22;20538;51.528;9.942;2022-10-16T16:30:39;17.60;99.90
34279;DHT22;20538;51.528;9.942;2022-10-16T16:33:05;17.60;99.90
34279;DHT22;20538;51.528;9.942;2022-10-16T16:35:31;17.60;99.90
34279;DHT22;20538;51.528;9.942;2022-10-16T16:37:56;17.50;99.90
34279;DHT22;20538;51.528;9.942;2022-10-16T16:40:22;17.50;99.90
34279;DHT22;20538;51.528;9.942;2022-10-16T16:42:48;17.40;99.90
34279;DHT22;20538;51.528;9.942;2022-10-16T16:45:14;17.30;99.90
34279;DHT22;20538;51.528;9.942;2022-10-16T16:47:40;17.20;99.90
34279;DHT22;20538;51.528;9.942;2022-10-16T16:50:06;17.10;99.90
34279;DHT22;20538;51.528;9.942;2022-10-16T16:52:33;17.10;99.90
34279;DHT22;20538;51.528;9.942;2022-10-16T16:54:58;17.00;99.90
34279;DHT22;20538;51.528;9.942;2022-10-16T16:57:24;16.90;99.90
34279;DHT22;20538;51.528;9.942;2022-10-16T16:59:50;16.70;99.90
34279;DHT22;20538;51.528;9.942;2022-10-16T17:02:17;16.60;99.90
34279;DHT22;20538;51.528;9.942;2022-10-16T17:04:43;16.50;99.90
34279;DHT22;20538;51.528;9.942;2022-10-16T17:07:08;16.50;99.90
34279;DHT22;20538;51.528;9.942;2022-10-16T17:09:34;16.50;99.90
34279;DHT22;20538;51.528;9.942;2022-10-16T17:12:00;16.60;99.90
34279;DHT22;20538;51.528;9.942;2022-10-16T17:14:25;16.60;99.90
34279;DHT22;20538;51.528;9.942;2022-10-16T17:16:52;16.50;99.90
34279;DHT22;20538;51.528;9.942;2022-10-16T17:19:19;16.40;99.90
34279;DHT22;20538;51.528;9.942;2022-10-16T17:21:48;16.40;99.90
34279;DHT22;20538;51.528;9.942;2022-10-16T17:24:13;16.40;99.90
34279;DHT22;20538;51.528;9.942;2022-10-16T17:26:39;16.30;99.90
34279;DHT22;20538;51.528;9.942;2022-10-16T17:29:11;16.30;99.90
34279;DHT22;20538;51.528;9.942;2022-10-16T17:31:37;16.20;99.90
34279;DHT22;20538;51.528;9.942;2022-10-16T17:34:05;16.20;99.90
34279;DHT22;20538;51.528;9.942;2022-10-16T17:36:33;16.20;99.90
34279;DHT22;20538;51.528;9.942;2022-10-16T17:39:01;16.10;99.90
34279;DHT22;20538;51.528;9.942;2022-10-16T17:41:29;16.10;99.90
34279;DHT22;20538;51.528;9.942;2022-10-16T17:43:55;16.10;99.90
34279;DHT22;20538;51.528;9.942;2022-10-16T17:46:22;16.10;99.90
34279;DHT22;20538;51.528;9.942;2022-10-16T17:48:50;16.10;99.90
34279;DHT22;20538;51.528;9.942;2022-10-16T17:51:21;16.10;99.90
34279;DHT22;20538;51.528;9.942;2022-10-16T17:53:48;16.10;99.90
34279;DHT22;20538;51.528;9.942;2022-10-16T17:56:14;16.10;99.90
34279;DHT22;20538;51.528;9.942;2022-10-16T17:58:41;16.10;99.90
34279;DHT22;20538;51.528;9.942;2022-10-16T18:01:21;16.10;99.90
34279;DHT22;20538;51.528;9.942;2022-10-16T18:03:56;16.10;99.90
34279;DHT22;20538;51.528;9.942;2022-10-16T18:06:22;16.10;99.90
34279;DHT22;20538;51.528;9.942;2022-10-16T18:08:48;16.10;99.90
34279;DHT22;20538;51.528;9.942;2022-10-16T18:11:14;16.10;99.90